sensor_id;sensor_type;location;lat;lon;timestamp;pressure;altitude;pressure_sealevel;temperature;humidity
55755;BME280;41674;52.290;-1.474;2022-12-31T00:01:54;99042.93;;;7.61;96.28
55755;BME280;41674;52.290;-1.474;2022-12-31T00:04:24;99044.79;;;7.43;97.89
55755;BME280;41674;52.290;-1.474;2022-12-31T00:06:54;99044.26;;;7.61;97.36
55755;BME280;41674;52.290;-1.474;2022-12-31T00:09:23;99044.86;;;7.60;97.15
55755;BME280;41674;52.290;-1.474;2022-12-31T00:11:53;99045.23;;;7.08;99.33
55755;BME280;41674;52.290;-1.474;2022-12-31T00:14:22;99040.32;;;7.18;98.85
55755;BME280;41674;52.290;-1.474;2022-12-31T00:16:52;99042.18;;;7.06;99.22
55755;BME280;41674;52.290;-1.474;2022-12-31T00:19:22;99047.14;;;7.85;96.35
55755;BME280;41674;52.290;-1.474;2022-12-31T00:21:51;99047.63;;;6.75;100.00
55755;BME280;41674;52.290;-1.474;2022-12-31T00:24:21;99046.04;;;7.38;98.51
55755;BME280;41674;52.290;-1.474;2022-12-31T00:26:50;99035.76;;;7.73;97.22
55755;BME280;41674;52.290;-1.474;2022-12-31T00:29:21;99046.65;;;7.52;97.69
55755;BME280;41674;52.290;-1.474;2022-12-31T00:31:50;99047.46;;;7.97;94.41
55755;BME280;41674;52.290;-1.474;2022-12-31T00:34:21;99041.07;;;8.09;94.14
55755;BME280;41674;52.290;-1.474;2022-12-31T00:36:49;99036.45;;;7.88;94.62
55755;BME280;41674;52.290;-1.474;2022-12-31T00:39:18;99050.17;;;8.03;96.75
55755;BME280;41674;52.290;-1.474;2022-12-31T00:41:48;99048.92;;;7.20;100.00
55755;BME280;41674;52.290;-1.474;2022-12-31T00:44:18;99045.37;;;6.87;100.00
55755;BME280;41674;52.290;-1.474;2022-12-31T00:46:47;99042.86;;;6.87;100.00
55755;BME280;41674;52.290;-1.474;2022-12-31T00:49:18;99044.16;;;6.94;100.00
55755;BME280;41674;52.290;-1.474;2022-12-31T00:51:47;99041.55;;;7.61;100.00
55755;BME280;41674;52.290;-1.474;2022-12-31T00:54:16;99043.26;;;7.24;100.00
55755;BME280;41674;52.290;-1.474;2022-12-31T00:56:46;99035.75;;;7.41;100.00
55755;BME280;41674;52.290;-1.474;2022-12-31T00:59:15;99031.96;;;7.73;100.00
55755;BME280;41674;52.290;-1.474;2022-12-31T01:01:45;99034.77;;;7.82;100.00
55755;BME280;41674;52.290;-1.474;2022-12-31T01:04:18;99029.90;;;8.01;100.00
55755;BME280;41674;52.290;-1.474;2022-12-31T01:06:44;99024.55;;;8.31;98.16
55755;BME280;41674;52.290;-1.474;2022-12-31T01:09:15;99023.64;;;7.51;100.00
55755;BME280;41674;52.290;-1.474;2022-12-31T01:11:44;99022.50;;;7.83;100.00
55755;BME280;41674;52.290;-1.474;2022-12-31T01:14:14;99012.73;;;7.58;100.00
55755;BME280;41674;52.290;-1.474;2022-12-31T01:16:45;99007.46;;;7.48;100.00
55755;BME280;41674;52.290;-1.474;2022-12-31T01:19:14;99004.75;;;7.98;99.86
55755;BME280;41674;52.290;-1.474;2022-12-31T01:21:43;99000.66;;;7.94;100.00
55755;BME280;41674;52.290;-1.474;2022-12-31T01:24:12;99006.12;;;7.85;100.00
55755;BME280;41674;52.290;-1.474;2022-12-31T01:26:42;99006.68;;;7.87;100.00
55755;BME280;41674;52.290;-1.474;2022-12-31T01:29:11;99005.67;;;7.57;100.00
55755;BME280;41674;52.290;-1.474;2022-12-31T01:31:40;98999.58;;;7.93;100.00
55755;BME280;41674;52.290;-1.474;2022-12-31T01:34:10;98993.16;;;7.15;100.00
55755;BME280;41674;52.290;-1.474;2022-12-31T01:36:39;98992.83;;;7.88;100.00
55755;BME280;41674;52.290;-1.474;2022-12-31T01:39:10;98988.77;;;7.70;100.00
55755;BME280;41674;52.290;-1.474;2022-12-31T01:41:40;98987.56;;;7.59;100.00
55755;BME280;41674;52.290;-1.474;2022-12-31T01:46:40;98978.72;;;7.98;100.00
55755;BME280;41674;52.290;-1.474;2022-12-31T01:49:18;98986.85;;;7.45;100.00
55755;BME280;41674;52.290;-1.474;2022-12-31T01:51:38;98988.04;;;7.41;100.00
55755;BME280;41674;52.290;-1.474;2022-12-31T01:54:09;98983.41;;;7.44;100.00
55755;BME280;41674;52.290;-1.474;2022-12-31T01:56:38;98986.59;;;7.57;100.00
55755;BME280;41674;52.290;-1.474;2022-12-31T01:59:08;98990.55;;;7.98;100.00
55755;BME280;41674;52.290;-1.474;2022-12-31T02:01:37;98984.01;;;8.11;100.00
55755;BME280;41674;52.290;-1.474;2022-12-31T02:04:10;98985.24;;;8.13;100.00
55755;BME280;41674;52.290;-1.474;2022-12-31T02:06:37;98980.89;;;7.81;100.00
55755;BME280;41674;52.290;-1.474;2022-12-31T02:09:04;98979.53;;;7.94;100.00
55755;BME280;41674;52.290;-1.474;2022-12-31T02:11:34;98980.76;;;8.00;100.00
55755;BME280;41674;52.290;-1.474;2022-12-31T02:14:06;98987.46;;;7.54;100.00
55755;BME280;41674;52.290;-1.474;2022-12-31T02:16:38;98991.27;;;7.48;100.00
55755;BME280;41674;52.290;-1.474;2022-12-31T02:19:26;98995.37;;;7.66;100.00
55755;BME280;41674;52.290;-1.474;2022-12-31T02:21:42;98997.11;;;7.52;100.00
55755;BME280;41674;52.290;-1.474;2022-12-31T02:24:12;98992.05;;;7.16;100.00
55755;BME280;41674;52.290;-1.474;2022-12-31T02:26:44;99000.33;;;7.41;100.00
55755;BME280;41674;52.290;-1.474;2022-12-31T02:29:21;98996.56;;;7.33;100.00
55755;BME280;41674;52.290;-1.474;2022-12-31T02:31:34;99006.55;;;7.61;100.00
55755;BME280;41674;52.290;-1.474;2022-12-31T02:34:04;99010.86;;;7.77;100.00
55755;BME280;41674;52.290;-1.474;2022-12-31T02:36:34;99015.20;;;7.37;100.00
55755;BME280;41674;52.290;-1.474;2022-12-31T02:39:00;99016.98;;;7.05;100.00
55755;BME280;41674;52.290;-1.474;2022-12-31T02:41:29;99011.49;;;7.57;100.00
55755;BME280;41674;52.290;-1.474;2022-12-31T02:43:59;99006.86;;;7.58;100.00
55755;BME280;41674;52.290;-1.474;2022-12-31T02:46:33;99000.60;;;7.72;100.00
55755;BME280;41674;52.290;-1.474;2022-12-31T02:49:03;99008.35;;;7.75;100.00
55755;BME280;41674;52.290;-1.474;2022-12-31T02:51:35;99002.48;;;7.76;100.00
55755;BME280;41674;52.290;-1.474;2022-12-31T02:54:11;99006.98;;;7.99;100.00
55755;BME280;41674;52.290;-1.474;2022-12-31T02:56:31;99019.44;;;7.60;100.00
55755;BME280;41674;52.290;-1.474;2022-12-31T02:59:02;99012.47;;;7.87;100.00
55755;BME280;41674;52.290;-1.474;2022-12-31T03:01:31;99005.26;;;7.78;100.00
55755;BME280;41674;52.290;-1.474;2022-12-31T03:03:56;99008.95;;;7.85;100.00
55755;BME280;41674;52.290;-1.474;2022-12-31T03:06:25;99003.04;;;7.61;100.00
55755;BME280;41674;52.290;-1.474;2022-12-31T03:08:55;98994.19;;;7.83;100.00
55755;BME280;41674;52.290;-1.474;2022-12-31T03:11:24;98990.68;;;7.63;100.00
55755;BME280;41674;52.290;-1.474;2022-12-31T03:13:54;98982.78;;;7.34;100.00
55755;BME280;41674;52.290;-1.474;2022-12-31T03:16:28;98970.82;;;7.56;100.00
55755;BME280;41674;52.290;-1.474;2022-12-31T03:18:53;98966.00;;;7.91;100.00
55755;BME280;41674;52.290;-1.474;2022-12-31T03:21:23;98970.52;;;7.51;100.00
55755;BME280;41674;52.290;-1.474;2022-12-31T03:23:52;98977.64;;;7.72;100.00
55755;BME280;41674;52.290;-1.474;2022-12-31T03:26:22;98981.67;;;8.25;100.00
55755;BME280;41674;52.290;-1.474;2022-12-31T03:28:52;98976.03;;;8.22;100.00
55755;BME280;41674;52.290;-1.474;2022-12-31T03:31:22;98983.14;;;7.83;100.00
55755;BME280;41674;52.290;-1.474;2022-12-31T03:33:51;98980.14;;;7.92;100.00
55755;BME280;41674;52.290;-1.474;2022-12-31T03:36:20;98976.63;;;7.50;100.00
55755;BME280;41674;52.290;-1.474;2022-12-31T03:38:50;98964.49;;;7.55;100.00
55755;BME280;41674;52.290;-1.474;2022-12-31T03:41:20;98966.28;;;7.96;100.00
55755;BME280;41674;52.290;-1.474;2022-12-31T03:43:49;98973.58;;;7.85;100.00
55755;BME280;41674;52.290;-1.474;2022-12-31T03:46:19;98963.09;;;7.75;100.00
55755;BME280;41674;52.290;-1.474;2022-12-31T03:48:48;98966.62;;;7.96;100.00
55755;BME280;41674;52.290;-1.474;2022-12-31T03:51:18;98966.33;;;6.83;100.00
55755;BME280;41674;52.290;-1.474;2022-12-31T03:53:47;98965.94;;;7.13;100.00
55755;BME280;41674;52.290;-1.474;2022-12-31T03:56:17;98968.79;;;7.56;100.00
55755;BME280;41674;52.290;-1.474;2022-12-31T03:58:47;98948.60;;;7.52;100.00
55755;BME280;41674;52.290;-1.474;2022-12-31T04:01:16;98949.75;;;7.02;100.00
55755;BME280;41674;52.290;-1.474;2022-12-31T04:03:46;98947.18;;;7.28;100.00
55755;BME280;41674;52.290;-1.474;2022-12-31T04:06:15;98946.46;;;7.10;100.00
55755;BME280;41674;52.290;-1.474;2022-12-31T04:08:45;98942.90;;;7.38;100.00
55755;BME280;41674;52.290;-1.474;2022-12-31T04:11:15;98929.08;;;7.05;100.00
55755;BME280;41674;52.290;-1.474;2022-12-31T04:13:44;98923.64;;;7.48;100.00
55755;BME280;41674;52.290;-1.474;2022-12-31T04:16:14;98925.44;;;7.92;100.00
55755;BME280;41674;52.290;-1.474;2022-12-31T04:18:44;98913.60;;;8.07;100.00
55755;BME280;41674;52.290;-1.474;2022-12-31T04:21:13;98917.39;;;7.91;100.00
55755;BME280;41674;52.290;-1.474;2022-12-31T04:23:43;98917.59;;;7.62;100.00
55755;BME280;41674;52.290;-1.474;2022-12-31T04:26:12;98913.87;;;7.96;100.00
55755;BME280;41674;52.290;-1.474;2022-12-31T04:28:42;98925.20;;;8.24;100.00
55755;BME280;41674;52.290;-1.474;2022-12-31T04:31:12;98918.78;;;7.39;100.00
55755;BME280;41674;52.290;-1.474;2022-12-31T04:33:41;98915.30;;;8.01;100.00
55755;BME280;41674;52.290;-1.474;2022-12-31T04:36:11;98914.28;;;7.91;100.00
55755;BME280;41674;52.290;-1.474;2022-12-31T04:38:41;98911.37;;;7.87;100.00
55755;BME280;41674;52.290;-1.474;2022-12-31T04:41:10;98916.97;;;8.27;100.00
55755;BME280;41674;52.290;-1.474;2022-12-31T04:43:40;98900.28;;;8.19;100.00
55755;BME280;41674;52.290;-1.474;2022-12-31T04:46:09;98899.88;;;8.87;100.00
55755;BME280;41674;52.290;-1.474;2022-12-31T04:48:39;98898.20;;;8.07;100.00
55755;BME280;41674;52.290;-1.474;2022-12-31T04:51:08;98898.68;;;9.30;100.00
55755;BME280;41674;52.290;-1.474;2022-12-31T04:53:38;98903.61;;;8.61;100.00
55755;BME280;41674;52.290;-1.474;2022-12-31T04:56:08;98907.26;;;9.62;100.00
55755;BME280;41674;52.290;-1.474;2022-12-31T04:58:38;98912.93;;;9.46;100.00
55755;BME280;41674;52.290;-1.474;2022-12-31T05:01:07;98918.00;;;8.86;100.00
55755;BME280;41674;52.290;-1.474;2022-12-31T05:03:37;98904.48;;;8.28;100.00
55755;BME280;41674;52.290;-1.474;2022-12-31T05:06:08;98896.51;;;8.25;100.00
55755;BME280;41674;52.290;-1.474;2022-12-31T05:08:36;98891.19;;;9.11;100.00
55755;BME280;41674;52.290;-1.474;2022-12-31T05:11:06;98893.15;;;9.42;100.00
55755;BME280;41674;52.290;-1.474;2022-12-31T05:13:35;98890.46;;;9.42;100.00
55755;BME280;41674;52.290;-1.474;2022-12-31T05:16:05;98889.64;;;9.47;100.00
55755;BME280;41674;52.290;-1.474;2022-12-31T05:18:34;98888.60;;;9.96;100.00
55755;BME280;41674;52.290;-1.474;2022-12-31T05:21:04;98888.51;;;9.12;100.00
55755;BME280;41674;52.290;-1.474;2022-12-31T05:23:33;98888.26;;;8.79;100.00
55755;BME280;41674;52.290;-1.474;2022-12-31T05:26:03;98885.80;;;10.14;100.00
55755;BME280;41674;52.290;-1.474;2022-12-31T05:28:32;98884.49;;;9.89;100.00
55755;BME280;41674;52.290;-1.474;2022-12-31T05:31:02;98882.92;;;9.70;100.00
55755;BME280;41674;52.290;-1.474;2022-12-31T05:33:32;98884.67;;;9.83;100.00
55755;BME280;41674;52.290;-1.474;2022-12-31T05:36:01;98888.49;;;10.31;100.00
55755;BME280;41674;52.290;-1.474;2022-12-31T05:38:31;98888.34;;;9.70;100.00
55755;BME280;41674;52.290;-1.474;2022-12-31T05:41:03;98878.21;;;9.86;100.00
55755;BME280;41674;52.290;-1.474;2022-12-31T05:43:30;98883.19;;;9.84;100.00
55755;BME280;41674;52.290;-1.474;2022-12-31T05:46:00;98886.89;;;9.89;100.00
55755;BME280;41674;52.290;-1.474;2022-12-31T05:48:29;98885.11;;;9.86;100.00
55755;BME280;41674;52.290;-1.474;2022-12-31T05:50:58;98889.58;;;9.64;100.00
55755;BME280;41674;52.290;-1.474;2022-12-31T05:53:28;98879.32;;;9.64;100.00
55755;BME280;41674;52.290;-1.474;2022-12-31T05:55:58;98880.39;;;9.08;100.00
55755;BME280;41674;52.290;-1.474;2022-12-31T05:58:32;98883.84;;;7.67;100.00
55755;BME280;41674;52.290;-1.474;2022-12-31T06:00:57;98873.81;;;8.21;100.00
55755;BME280;41674;52.290;-1.474;2022-12-31T06:03:27;98867.62;;;8.19;100.00
55755;BME280;41674;52.290;-1.474;2022-12-31T06:05:56;98869.72;;;8.30;100.00
55755;BME280;41674;52.290;-1.474;2022-12-31T06:08:26;98866.40;;;8.60;100.00
55755;BME280;41674;52.290;-1.474;2022-12-31T06:10:55;98874.70;;;9.06;100.00
55755;BME280;41674;52.290;-1.474;2022-12-31T06:13:25;98872.16;;;8.88;100.00
55755;BME280;41674;52.290;-1.474;2022-12-31T06:15:54;98863.25;;;8.70;100.00
55755;BME280;41674;52.290;-1.474;2022-12-31T06:18:24;98862.35;;;9.14;100.00
55755;BME280;41674;52.290;-1.474;2022-12-31T06:20:56;98841.89;;;8.76;100.00
55755;BME280;41674;52.290;-1.474;2022-12-31T06:23:23;98848.65;;;9.01;100.00
55755;BME280;41674;52.290;-1.474;2022-12-31T06:25:53;98862.51;;;8.44;100.00
55755;BME280;41674;52.290;-1.474;2022-12-31T06:28:22;98867.93;;;8.20;100.00
55755;BME280;41674;52.290;-1.474;2022-12-31T06:30:58;98882.16;;;8.79;100.00
55755;BME280;41674;52.290;-1.474;2022-12-31T06:33:21;98881.82;;;8.60;100.00
55755;BME280;41674;52.290;-1.474;2022-12-31T06:35:54;98872.77;;;9.07;100.00
55755;BME280;41674;52.290;-1.474;2022-12-31T06:38:20;98897.09;;;8.90;100.00
55755;BME280;41674;52.290;-1.474;2022-12-31T06:40:50;98891.08;;;8.88;100.00
55755;BME280;41674;52.290;-1.474;2022-12-31T06:43:20;98902.27;;;9.08;100.00
55755;BME280;41674;52.290;-1.474;2022-12-31T06:45:49;98895.72;;;8.92;100.00
55755;BME280;41674;52.290;-1.474;2022-12-31T06:48:18;98902.39;;;8.78;100.00
55755;BME280;41674;52.290;-1.474;2022-12-31T06:50:48;98897.85;;;9.17;100.00
55755;BME280;41674;52.290;-1.474;2022-12-31T06:53:17;98906.09;;;9.34;100.00
55755;BME280;41674;52.290;-1.474;2022-12-31T06:55:47;98892.30;;;9.18;100.00
55755;BME280;41674;52.290;-1.474;2022-12-31T06:58:17;98909.12;;;9.04;100.00
55755;BME280;41674;52.290;-1.474;2022-12-31T07:00:52;98910.43;;;9.09;100.00
55755;BME280;41674;52.290;-1.474;2022-12-31T07:03:26;98912.50;;;9.04;100.00
55755;BME280;41674;52.290;-1.474;2022-12-31T07:05:48;98919.19;;;9.59;100.00
55755;BME280;41674;52.290;-1.474;2022-12-31T07:08:23;98915.16;;;9.38;100.00
55755;BME280;41674;52.290;-1.474;2022-12-31T07:10:49;98905.43;;;9.32;100.00
55755;BME280;41674;52.290;-1.474;2022-12-31T07:13:29;98912.79;;;9.28;100.00
55755;BME280;41674;52.290;-1.474;2022-12-31T07:15:51;98917.79;;;9.41;100.00
55755;BME280;41674;52.290;-1.474;2022-12-31T07:18:21;98929.94;;;9.39;100.00
55755;BME280;41674;52.290;-1.474;2022-12-31T07:20:43;98927.90;;;9.45;100.00
55755;BME280;41674;52.290;-1.474;2022-12-31T07:23:13;98920.15;;;9.14;100.00
55755;BME280;41674;52.290;-1.474;2022-12-31T07:25:49;98937.50;;;9.37;100.00
55755;BME280;41674;52.290;-1.474;2022-12-31T07:28:19;98945.44;;;9.35;100.00
55755;BME280;41674;52.290;-1.474;2022-12-31T07:30:45;98944.95;;;8.89;100.00
55755;BME280;41674;52.290;-1.474;2022-12-31T07:33:24;98951.45;;;9.45;100.00
55755;BME280;41674;52.290;-1.474;2022-12-31T07:35:47;98940.23;;;9.60;100.00
55755;BME280;41674;52.290;-1.474;2022-12-31T07:38:18;98944.52;;;9.17;100.00
55755;BME280;41674;52.290;-1.474;2022-12-31T07:40:51;98952.56;;;9.61;100.00
55755;BME280;41674;52.290;-1.474;2022-12-31T07:43:13;98961.98;;;9.37;100.00
55755;BME280;41674;52.290;-1.474;2022-12-31T07:45:43;98973.41;;;9.26;100.00
55755;BME280;41674;52.290;-1.474;2022-12-31T07:48:21;98973.65;;;9.34;100.00
55755;BME280;41674;52.290;-1.474;2022-12-31T07:50:38;98967.27;;;9.37;100.00
55755;BME280;41674;52.290;-1.474;2022-12-31T07:53:08;98980.05;;;9.58;100.00
55755;BME280;41674;52.290;-1.474;2022-12-31T07:55:37;99008.33;;;9.65;100.00
55755;BME280;41674;52.290;-1.474;2022-12-31T07:58:16;98992.28;;;8.99;100.00
55755;BME280;41674;52.290;-1.474;2022-12-31T08:00:36;99000.01;;;9.37;100.00
55755;BME280;41674;52.290;-1.474;2022-12-31T08:03:14;98994.66;;;9.55;100.00
55755;BME280;41674;52.290;-1.474;2022-12-31T08:05:41;98995.67;;;9.47;100.00
55755;BME280;41674;52.290;-1.474;2022-12-31T08:08:15;98984.04;;;9.41;100.00
55755;BME280;41674;52.290;-1.474;2022-12-31T08:10:40;98998.59;;;9.21;100.00
55755;BME280;41674;52.290;-1.474;2022-12-31T08:13:09;99010.83;;;9.61;100.00
55755;BME280;41674;52.290;-1.474;2022-12-31T08:15:36;99024.05;;;9.64;100.00
55755;BME280;41674;52.290;-1.474;2022-12-31T08:18:04;99032.04;;;9.43;100.00
55755;BME280;41674;52.290;-1.474;2022-12-31T08:20:35;99033.86;;;9.15;100.00
55755;BME280;41674;52.290;-1.474;2022-12-31T08:23:14;99033.49;;;9.61;100.00
55755;BME280;41674;52.290;-1.474;2022-12-31T08:25:38;99039.45;;;9.43;100.00
55755;BME280;41674;52.290;-1.474;2022-12-31T08:28:06;99060.13;;;9.36;100.00
55755;BME280;41674;52.290;-1.474;2022-12-31T08:30:40;99055.68;;;9.05;100.00
55755;BME280;41674;52.290;-1.474;2022-12-31T08:33:07;99061.81;;;9.57;100.00
55755;BME280;41674;52.290;-1.474;2022-12-31T08:35:38;99064.45;;;9.69;100.00
55755;BME280;41674;52.290;-1.474;2022-12-31T08:38:08;99073.34;;;9.79;100.00
55755;BME280;41674;52.290;-1.474;2022-12-31T08:40:36;99066.88;;;9.31;100.00
55755;BME280;41674;52.290;-1.474;2022-12-31T08:43:10;99081.69;;;9.54;100.00
55755;BME280;41674;52.290;-1.474;2022-12-31T08:45:31;99098.67;;;9.56;100.00
55755;BME280;41674;52.290;-1.474;2022-12-31T08:48:00;99113.21;;;9.30;100.00
55755;BME280;41674;52.290;-1.474;2022-12-31T08:50:27;99114.48;;;9.25;100.00
55755;BME280;41674;52.290;-1.474;2022-12-31T08:52:56;99121.75;;;9.26;100.00
55755;BME280;41674;52.290;-1.474;2022-12-31T08:55:27;99116.13;;;9.71;100.00
55755;BME280;41674;52.290;-1.474;2022-12-31T08:58:07;99108.21;;;10.01;100.00
55755;BME280;41674;52.290;-1.474;2022-12-31T09:00:25;99120.48;;;9.91;100.00
55755;BME280;41674;52.290;-1.474;2022-12-31T09:03:11;99115.96;;;9.94;100.00
55755;BME280;41674;52.290;-1.474;2022-12-31T09:05:28;99116.99;;;9.86;100.00
55755;BME280;41674;52.290;-1.474;2022-12-31T09:08:06;99123.84;;;9.34;100.00
55755;BME280;41674;52.290;-1.474;2022-12-31T09:10:27;99124.91;;;9.26;100.00
55755;BME280;41674;52.290;-1.474;2022-12-31T09:13:00;99133.71;;;9.68;100.00
55755;BME280;41674;52.290;-1.474;2022-12-31T09:15:28;99136.08;;;9.80;100.00
55755;BME280;41674;52.290;-1.474;2022-12-31T09:17:52;99144.45;;;9.47;100.00
55755;BME280;41674;52.290;-1.474;2022-12-31T09:20:24;99141.27;;;9.77;100.00
55755;BME280;41674;52.290;-1.474;2022-12-31T09:22:52;99139.19;;;9.90;100.00
55755;BME280;41674;52.290;-1.474;2022-12-31T09:25:22;99143.06;;;9.38;100.00
55755;BME280;41674;52.290;-1.474;2022-12-31T09:28:00;99150.12;;;9.20;100.00
55755;BME280;41674;52.290;-1.474;2022-12-31T09:30:19;99148.13;;;9.37;100.00
55755;BME280;41674;52.290;-1.474;2022-12-31T09:32:57;99151.47;;;9.63;100.00
55755;BME280;41674;52.290;-1.474;2022-12-31T09:35:24;99145.34;;;10.12;100.00
55755;BME280;41674;52.290;-1.474;2022-12-31T09:37:49;99144.52;;;10.22;100.00
55755;BME280;41674;52.290;-1.474;2022-12-31T09:40:32;99143.38;;;10.10;100.00
55755;BME280;41674;52.290;-1.474;2022-12-31T09:42:59;99143.90;;;9.85;100.00
55755;BME280;41674;52.290;-1.474;2022-12-31T09:45:43;99143.90;;;10.39;100.00
55755;BME280;41674;52.290;-1.474;2022-12-31T09:48:04;99136.44;;;10.27;100.00
55755;BME280;41674;52.290;-1.474;2022-12-31T09:53:00;99142.11;;;10.86;100.00
55755;BME280;41674;52.290;-1.474;2022-12-31T09:55:24;99157.57;;;10.64;100.00
55755;BME280;41674;52.290;-1.474;2022-12-31T09:57:50;99150.45;;;10.66;100.00
55755;BME280;41674;52.290;-1.474;2022-12-31T10:00:19;99150.39;;;10.89;100.00
55755;BME280;41674;52.290;-1.474;2022-12-31T10:02:57;99152.70;;;10.24;100.00
55755;BME280;41674;52.290;-1.474;2022-12-31T10:05:25;99148.14;;;10.82;100.00
55755;BME280;41674;52.290;-1.474;2022-12-31T10:07:48;99146.95;;;10.63;100.00
55755;BME280;41674;52.290;-1.474;2022-12-31T10:10:17;99148.23;;;10.43;100.00
55755;BME280;41674;52.290;-1.474;2022-12-31T10:17:50;99153.72;;;10.78;100.00
55755;BME280;41674;52.290;-1.474;2022-12-31T10:20:23;99159.46;;;11.07;100.00
55755;BME280;41674;52.290;-1.474;2022-12-31T10:22:48;99163.64;;;10.11;100.00
55755;BME280;41674;52.290;-1.474;2022-12-31T10:25:26;99168.30;;;10.48;100.00
55755;BME280;41674;52.290;-1.474;2022-12-31T10:27:48;99167.65;;;11.12;100.00
55755;BME280;41674;52.290;-1.474;2022-12-31T10:30:14;99165.24;;;10.48;100.00
55755;BME280;41674;52.290;-1.474;2022-12-31T10:32:42;99175.01;;;10.87;100.00
55755;BME280;41674;52.290;-1.474;2022-12-31T10:35:18;99186.27;;;10.10;100.00
55755;BME280;41674;52.290;-1.474;2022-12-31T10:37:42;99184.57;;;10.76;100.00
55755;BME280;41674;52.290;-1.474;2022-12-31T10:40:19;99187.08;;;10.49;100.00
55755;BME280;41674;52.290;-1.474;2022-12-31T10:42:50;99186.24;;;10.21;100.00
55755;BME280;41674;52.290;-1.474;2022-12-31T10:47:57;99191.14;;;10.47;100.00
55755;BME280;41674;52.290;-1.474;2022-12-31T10:57:46;99195.81;;;11.31;100.00
55755;BME280;41674;52.290;-1.474;2022-12-31T11:00:11;99196.17;;;11.45;100.00
55755;BME280;41674;52.290;-1.474;2022-12-31T11:07:41;99182.25;;;11.27;100.00
55755;BME280;41674;52.290;-1.474;2022-12-31T11:10:16;99182.38;;;10.99;100.00
55755;BME280;41674;52.290;-1.474;2022-12-31T11:12:45;99182.50;;;11.14;100.00
55755;BME280;41674;52.290;-1.474;2022-12-31T11:15:12;99189.07;;;11.57;100.00
55755;BME280;41674;52.290;-1.474;2022-12-31T11:17:36;99188.34;;;11.32;100.00
55755;BME280;41674;52.290;-1.474;2022-12-31T11:20:13;99186.87;;;11.21;100.00
55755;BME280;41674;52.290;-1.474;2022-12-31T11:22:44;99198.40;;;11.33;100.00
55755;BME280;41674;52.290;-1.474;2022-12-31T11:25:17;99201.65;;;11.35;100.00
55755;BME280;41674;52.290;-1.474;2022-12-31T11:27:39;99204.18;;;10.81;100.00
55755;BME280;41674;52.290;-1.474;2022-12-31T11:30:04;99222.20;;;10.84;100.00
55755;BME280;41674;52.290;-1.474;2022-12-31T11:32:34;99223.31;;;10.62;100.00
55755;BME280;41674;52.290;-1.474;2022-12-31T11:35:07;99211.21;;;10.95;100.00
55755;BME280;41674;52.290;-1.474;2022-12-31T11:37:32;99212.47;;;10.95;100.00
55755;BME280;41674;52.290;-1.474;2022-12-31T11:40:02;99212.87;;;10.74;100.00
55755;BME280;41674;52.290;-1.474;2022-12-31T11:42:33;99204.16;;;11.12;100.00
55755;BME280;41674;52.290;-1.474;2022-12-31T11:44:58;99198.21;;;11.49;100.00
55755;BME280;41674;52.290;-1.474;2022-12-31T11:47:45;99192.54;;;11.39;100.00
55755;BME280;41674;52.290;-1.474;2022-12-31T11:50:02;99185.84;;;11.33;100.00
55755;BME280;41674;52.290;-1.474;2022-12-31T11:52:35;99183.39;;;11.86;100.00
55755;BME280;41674;52.290;-1.474;2022-12-31T11:57:26;99181.16;;;11.41;100.00
55755;BME280;41674;52.290;-1.474;2022-12-31T11:59:55;99180.84;;;11.48;100.00
55755;BME280;41674;52.290;-1.474;2022-12-31T12:02:25;99175.84;;;11.88;100.00
55755;BME280;41674;52.290;-1.474;2022-12-31T12:04:50;99170.29;;;11.24;100.00
55755;BME280;41674;52.290;-1.474;2022-12-31T12:07:19;99161.50;;;12.06;100.00
55755;BME280;41674;52.290;-1.474;2022-12-31T12:09:49;99152.44;;;11.78;100.00
55755;BME280;41674;52.290;-1.474;2022-12-31T12:12:18;99155.63;;;10.78;100.00
55755;BME280;41674;52.290;-1.474;2022-12-31T12:14:51;99146.76;;;10.99;100.00
55755;BME280;41674;52.290;-1.474;2022-12-31T12:17:24;99142.44;;;11.19;100.00
55755;BME280;41674;52.290;-1.474;2022-12-31T12:19:53;99138.05;;;11.12;100.00
55755;BME280;41674;52.290;-1.474;2022-12-31T12:22:21;99127.68;;;11.52;100.00
55755;BME280;41674;52.290;-1.474;2022-12-31T12:24:52;99127.91;;;11.13;100.00
55755;BME280;41674;52.290;-1.474;2022-12-31T12:27:22;99130.04;;;11.21;100.00
55755;BME280;41674;52.290;-1.474;2022-12-31T12:29:44;99119.26;;;11.61;100.00
55755;BME280;41674;52.290;-1.474;2022-12-31T12:32:16;99112.34;;;11.54;100.00
55755;BME280;41674;52.290;-1.474;2022-12-31T12:34:43;99114.35;;;11.37;100.00
55755;BME280;41674;52.290;-1.474;2022-12-31T12:37:24;99113.65;;;11.10;100.00
55755;BME280;41674;52.290;-1.474;2022-12-31T12:39:42;99104.68;;;11.01;100.00
55755;BME280;41674;52.290;-1.474;2022-12-31T12:42:13;99099.76;;;10.93;100.00
55755;BME280;41674;52.290;-1.474;2022-12-31T12:44:40;99106.18;;;10.40;100.00
55755;BME280;41674;52.290;-1.474;2022-12-31T12:47:14;99104.98;;;10.40;100.00
55755;BME280;41674;52.290;-1.474;2022-12-31T12:49:43;99114.26;;;10.83;100.00
55755;BME280;41674;52.290;-1.474;2022-12-31T12:54:51;99107.15;;;11.13;100.00
55755;BME280;41674;52.290;-1.474;2022-12-31T12:57:15;99119.38;;;11.19;100.00
55755;BME280;41674;52.290;-1.474;2022-12-31T12:59:57;99123.55;;;11.53;100.00
55755;BME280;41674;52.290;-1.474;2022-12-31T13:02:22;99128.03;;;11.49;100.00
55755;BME280;41674;52.290;-1.474;2022-12-31T13:04:46;99125.73;;;11.38;100.00
55755;BME280;41674;52.290;-1.474;2022-12-31T13:07:18;99129.10;;;11.69;100.00
55755;BME280;41674;52.290;-1.474;2022-12-31T13:09:47;99130.61;;;10.92;100.00
55755;BME280;41674;52.290;-1.474;2022-12-31T13:12:14;99121.99;;;12.53;100.00
55755;BME280;41674;52.290;-1.474;2022-12-31T13:14:40;99120.44;;;12.06;100.00
55755;BME280;41674;52.290;-1.474;2022-12-31T13:17:15;99118.14;;;12.43;100.00
55755;BME280;41674;52.290;-1.474;2022-12-31T13:19:40;99115.61;;;12.04;100.00
55755;BME280;41674;52.290;-1.474;2022-12-31T13:22:09;99114.11;;;12.24;100.00
55755;BME280;41674;52.290;-1.474;2022-12-31T13:24:45;99107.44;;;11.82;100.00
55755;BME280;41674;52.290;-1.474;2022-12-31T13:27:09;99108.35;;;12.09;100.00
55755;BME280;41674;52.290;-1.474;2022-12-31T13:29:34;99106.49;;;13.07;99.73